sensor_id;sensor_type;location;lat;lon;timestamp;pressure;altitude;pressure_sealevel;temperature;humidity
48404;BME280;34202;52.536;6.042;2024-02-21T00:02:22;102152.34;;;8.67;100.00
48404;BME280;34202;52.536;6.042;2024-02-21T00:07:22;102159.55;;;8.64;100.00
48404;BME280;34202;52.536;6.042;2024-02-21T00:12:22;102152.22;;;8.63;100.00
48404;BME280;34202;52.536;6.042;2024-02-21T00:17:23;102146.29;;;8.63;100.00
48404;BME280;34202;52.536;6.042;2024-02-21T00:22:23;102156.86;;;8.62;100.00
48404;BME280;34202;52.536;6.042;2024-02-21T00:27:25;102146.30;;;8.63;100.00
48404;BME280;34202;52.536;6.042;2024-02-21T00:32:25;102137.76;;;8.62;100.00
48404;BME280;34202;52.536;6.042;2024-02-21T00:37:26;102131.52;;;8.62;100.00
48404;BME280;34202;52.536;6.042;2024-02-21T00:42:26;102122.66;;;8.62;100.00
48404;BME280;34202;52.536;6.042;2024-02-21T00:47:27;102107.72;;;8.62;100.00
48404;BME280;34202;52.536;6.042;2024-02-21T00:52:27;102120.40;;;8.62;100.00
48404;BME280;34202;52.536;6.042;2024-02-21T00:57:27;102110.87;;;8.62;100.00
48404;BME280;34202;52.536;6.042;2024-02-21T01:02:28;102113.64;;;8.62;100.00
48404;BME280;34202;52.536;6.042;2024-02-21T01:07:31;102107.04;;;8.62;100.00
48404;BME280;34202;52.536;6.042;2024-02-21T01:12:31;102108.23;;;8.61;100.00
48404;BME280;34202;52.536;6.042;2024-02-21T01:17:32;102110.19;;;8.63;100.00
48404;BME280;34202;52.536;6.042;2024-02-21T01:22:32;102091.22;;;8.61;100.00
48404;BME280;34202;52.536;6.042;2024-02-21T01:27:33;102072.29;;;8.61;100.00
48404;BME280;34202;52.536;6.042;2024-02-21T01:32:33;102066.70;;;8.60;100.00
48404;BME280;34202;52.536;6.042;2024-02-21T01:37:34;102068.61;;;8.59;100.00
48404;BME280;34202;52.536;6.042;2024-02-21T01:42:38;102065.48;;;8.59;100.00
48404;BME280;34202;52.536;6.042;2024-02-21T01:47:40;102057.81;;;8.59;100.00
48404;BME280;34202;52.536;6.042;2024-02-21T01:52:42;102050.33;;;8.58;100.00
48404;BME280;34202;52.536;6.042;2024-02-21T01:57:44;102047.05;;;8.59;100.00
48404;BME280;34202;52.536;6.042;2024-02-21T02:02:47;102048.59;;;8.58;100.00
48404;BME280;34202;52.536;6.042;2024-02-21T02:07:48;102049.47;;;8.58;100.00
48404;BME280;34202;52.536;6.042;2024-02-21T02:12:48;102047.77;;;8.59;100.00
48404;BME280;34202;52.536;6.042;2024-02-21T02:17:49;102041.16;;;8.59;100.00
48404;BME280;34202;52.536;6.042;2024-02-21T02:22:49;102034.90;;;8.59;100.00
48404;BME280;34202;52.536;6.042;2024-02-21T02:27:50;102031.63;;;8.59;100.00
48404;BME280;34202;52.536;6.042;2024-02-21T02:32:50;102029.48;;;8.57;100.00
48404;BME280;34202;52.536;6.042;2024-02-21T02:37:51;102029.68;;;8.58;100.00
48404;BME280;34202;52.536;6.042;2024-02-21T02:42:51;102031.94;;;8.58;100.00
48404;BME280;34202;52.536;6.042;2024-02-21T02:47:53;102030.19;;;8.57;100.00
48404;BME280;34202;52.536;6.042;2024-02-21T02:52:54;102026.38;;;8.58;100.00
48404;BME280;34202;52.536;6.042;2024-02-21T02:57:55;102015.09;;;8.58;100.00
48404;BME280;34202;52.536;6.042;2024-02-21T03:02:56;102006.92;;;8.57;100.00
48404;BME280;34202;52.536;6.042;2024-02-21T03:07:56;101996.31;;;8.57;100.00
48404;BME280;34202;52.536;6.042;2024-02-21T03:12:57;101992.48;;;8.56;100.00
48404;BME280;34202;52.536;6.042;2024-02-21T03:17:57;101984.80;;;8.55;100.00
48404;BME280;34202;52.536;6.042;2024-02-21T03:22:58;101975.90;;;8.53;100.00
48404;BME280;34202;52.536;6.042;2024-02-21T03:27:58;101963.55;;;8.52;100.00
48404;BME280;34202;52.536;6.042;2024-02-21T03:32:58;101959.16;;;8.51;100.00
48404;BME280;34202;52.536;6.042;2024-02-21T03:37:59;101955.48;;;8.49;100.00
48404;BME280;34202;52.536;6.042;2024-02-21T03:42:59;101951.98;;;8.48;100.00
48404;BME280;34202;52.536;6.042;2024-02-21T03:48:00;101952.98;;;8.47;100.00
48404;BME280;34202;52.536;6.042;2024-02-21T03:53:00;101948.97;;;8.47;100.00
48404;BME280;34202;52.536;6.042;2024-02-21T03:58:00;101936.48;;;8.46;100.00
48404;BME280;34202;52.536;6.042;2024-02-21T04:03:01;101932.33;;;8.47;100.00
48404;BME280;34202;52.536;6.042;2024-02-21T04:08:04;101933.53;;;8.46;100.00
48404;BME280;34202;52.536;6.042;2024-02-21T04:13:06;101936.32;;;8.47;100.00
48404;BME280;34202;52.536;6.042;2024-02-21T04:18:07;101926.79;;;8.47;100.00
48404;BME280;34202;52.536;6.042;2024-02-21T04:23:07;101928.37;;;8.48;100.00
48404;BME280;34202;52.536;6.042;2024-02-21T04:28:08;101935.80;;;8.47;100.00
48404;BME280;34202;52.536;6.042;2024-02-21T04:33:08;101927.52;;;8.48;100.00
48404;BME280;34202;52.536;6.042;2024-02-21T04:38:09;101917.28;;;8.49;100.00
48404;BME280;34202;52.536;6.042;2024-02-21T04:43:09;101915.73;;;8.49;100.00
48404;BME280;34202;52.536;6.042;2024-02-21T04:48:10;101917.33;;;8.50;100.00
48404;BME280;34202;52.536;6.042;2024-02-21T04:53:10;101912.32;;;8.50;100.00
48404;BME280;34202;52.536;6.042;2024-02-21T04:58:10;101901.59;;;8.51;100.00
48404;BME280;34202;52.536;6.042;2024-02-21T05:03:11;101900.05;;;8.52;100.00
48404;BME280;34202;52.536;6.042;2024-02-21T05:08:11;101896.23;;;8.52;100.00
48404;BME280;34202;52.536;6.042;2024-02-21T05:13:12;101890.70;;;8.53;100.00
48404;BME280;34202;52.536;6.042;2024-02-21T05:18:12;101895.58;;;8.54;100.00
48404;BME280;34202;52.536;6.042;2024-02-21T05:23:12;101891.10;;;8.54;100.00
48404;BME280;34202;52.536;6.042;2024-02-21T05:28:13;101878.06;;;8.54;100.00
48404;BME280;34202;52.536;6.042;2024-02-21T05:33:13;101872.86;;;8.54;100.00
48404;BME280;34202;52.536;6.042;2024-02-21T05:38:21;101872.16;;;8.54;100.00
48404;BME280;34202;52.536;6.042;2024-02-21T05:43:21;101863.98;;;8.53;100.00
48404;BME280;34202;52.536;6.042;2024-02-21T05:48:22;101860.87;;;8.53;100.00
48404;BME280;34202;52.536;6.042;2024-02-21T05:53:23;101853.91;;;8.53;100.00
48404;BME280;34202;52.536;6.042;2024-02-21T05:58:23;101847.32;;;8.53;100.00
48404;BME280;34202;52.536;6.042;2024-02-21T06:03:23;101831.54;;;8.53;100.00
48404;BME280;34202;52.536;6.042;2024-02-21T06:08:24;101817.64;;;8.52;100.00
48404;BME280;34202;52.536;6.042;2024-02-21T06:13:24;101815.00;;;8.51;100.00
48404;BME280;34202;52.536;6.042;2024-02-21T06:18:24;101811.50;;;8.50;100.00
48404;BME280;34202;52.536;6.042;2024-02-21T06:23:25;101804.20;;;8.49;100.00
48404;BME280;34202;52.536;6.042;2024-02-21T06:28:25;101802.10;;;8.49;100.00
48404;BME280;34202;52.536;6.042;2024-02-21T06:33:26;101804.48;;;8.47;100.00
48404;BME280;34202;52.536;6.042;2024-02-21T06:38:26;101804.27;;;8.46;100.00
48404;BME280;34202;52.536;6.042;2024-02-21T06:43:26;101806.18;;;8.46;100.00
48404;BME280;34202;52.536;6.042;2024-02-21T06:48:27;101808.94;;;8.45;100.00
48404;BME280;34202;52.536;6.042;2024-02-21T06:53:27;101809.77;;;8.45;100.00
48404;BME280;34202;52.536;6.042;2024-02-21T06:58:27;101812.73;;;8.45;100.00
48404;BME280;34202;52.536;6.042;2024-02-21T07:03:28;101810.12;;;8.44;100.00
48404;BME280;34202;52.536;6.042;2024-02-21T07:08:28;101806.63;;;8.44;100.00
48404;BME280;34202;52.536;6.042;2024-02-21T07:13:29;101806.95;;;8.44;100.00
48404;BME280;34202;52.536;6.042;2024-02-21T07:18:29;101798.11;;;8.43;100.00
48404;BME280;34202;52.536;6.042;2024-02-21T07:23:29;101794.27;;;8.43;100.00
48404;BME280;34202;52.536;6.042;2024-02-21T07:28:30;101786.99;;;8.43;100.00
48404;BME280;34202;52.536;6.042;2024-02-21T07:33:30;101783.17;;;8.43;100.00
48404;BME280;34202;52.536;6.042;2024-02-21T07:38:31;101773.80;;;8.43;100.00
48404;BME280;34202;52.536;6.042;2024-02-21T07:43:31;101770.34;;;8.43;100.00
48404;BME280;34202;52.536;6.042;2024-02-21T07:48:31;101762.55;;;8.44;100.00
48404;BME280;34202;52.536;6.042;2024-02-21T07:53:32;101752.34;;;8.44;100.00
48404;BME280;34202;52.536;6.042;2024-02-21T07:58:32;101744.03;;;8.45;100.00
48404;BME280;34202;52.536;6.042;2024-02-21T08:03:33;101733.13;;;8.45;100.00
48404;BME280;34202;52.536;6.042;2024-02-21T08:08:33;101722.38;;;8.46;100.00
48404;BME280;34202;52.536;6.042;2024-02-21T08:13:34;101723.10;;;8.47;100.00
48404;BME280;34202;52.536;6.042;2024-02-21T08:18:34;101717.06;;;8.48;100.00
48404;BME280;34202;52.536;6.042;2024-02-21T08:23:38;101720.27;;;8.50;100.00
48404;BME280;34202;52.536;6.042;2024-02-21T08:28:39;101720.66;;;8.53;100.00
48404;BME280;34202;52.536;6.042;2024-02-21T08:33:39;101714.84;;;8.55;100.00
48404;BME280;34202;52.536;6.042;2024-02-21T08:38:40;101696.70;;;8.58;100.00
48404;BME280;34202;52.536;6.042;2024-02-21T08:43:40;101689.88;;;8.62;100.00
48404;BME280;34202;52.536;6.042;2024-02-21T08:48:40;101684.06;;;8.65;100.00
48404;BME280;34202;52.536;6.042;2024-02-21T08:53:41;101678.27;;;8.69;100.00
48404;BME280;34202;52.536;6.042;2024-02-21T08:58:42;101670.27;;;8.75;100.00
48404;BME280;34202;52.536;6.042;2024-02-21T09:03:42;101667.27;;;8.79;100.00
48404;BME280;34202;52.536;6.042;2024-02-21T09:08:43;101663.88;;;8.82;100.00
48404;BME280;34202;52.536;6.042;2024-02-21T09:13:44;101661.52;;;8.85;100.00
48404;BME280;34202;52.536;6.042;2024-02-21T09:18:44;101666.80;;;8.87;100.00
48404;BME280;34202;52.536;6.042;2024-02-21T09:23:45;101660.59;;;8.89;100.00
48404;BME280;34202;52.536;6.042;2024-02-21T09:28:45;101654.42;;;8.92;100.00
48404;BME280;34202;52.536;6.042;2024-02-21T09:33:46;101642.84;;;8.94;100.00
48404;BME280;34202;52.536;6.042;2024-02-21T09:38:46;101638.88;;;8.95;100.00
48404;BME280;34202;52.536;6.042;2024-02-21T09:43:47;101630.95;;;8.98;100.00
48404;BME280;34202;52.536;6.042;2024-02-21T09:49:04;101621.64;;;9.00;100.00
48404;BME280;34202;52.536;6.042;2024-02-21T09:54:07;101612.03;;;9.05;100.00
48404;BME280;34202;52.536;6.042;2024-02-21T09:59:08;101602.42;;;9.09;100.00
48404;BME280;34202;52.536;6.042;2024-02-21T10:04:08;101587.25;;;9.14;100.00
48404;BME280;34202;52.536;6.042;2024-02-21T10:09:26;101578.16;;;9.18;100.00
48404;BME280;34202;52.536;6.042;2024-02-21T10:14:30;101565.27;;;9.24;100.00
48404;BME280;34202;52.536;6.042;2024-02-21T10:19:30;101559.66;;;9.29;100.00
48404;BME280;34202;52.536;6.042;2024-02-21T10:24:31;101544.02;;;9.36;100.00
48404;BME280;34202;52.536;6.042;2024-02-21T10:29:35;101537.61;;;9.45;100.00
48404;BME280;34202;52.536;6.042;2024-02-21T10:34:36;101530.70;;;9.55;100.00
48404;BME280;34202;52.536;6.042;2024-02-21T10:39:39;101517.14;;;9.62;100.00
48404;BME280;34202;52.536;6.042;2024-02-21T10:44:41;101506.88;;;9.70;100.00
48404;BME280;34202;52.536;6.042;2024-02-21T10:49:43;101492.73;;;9.75;100.00
48404;BME280;34202;52.536;6.042;2024-02-21T10:54:52;101494.23;;;9.81;100.00
48404;BME280;34202;52.536;6.042;2024-02-21T10:59:58;101494.47;;;9.84;100.00
48404;BME280;34202;52.536;6.042;2024-02-21T11:04:59;101489.48;;;9.86;100.00
48404;BME280;34202;52.536;6.042;2024-02-21T11:10:01;101468.12;;;9.88;100.00
48404;BME280;34202;52.536;6.042;2024-02-21T11:15:07;101453.56;;;9.91;100.00
48404;BME280;34202;52.536;6.042;2024-02-21T11:20:12;101446.84;;;9.93;100.00
48404;BME280;34202;52.536;6.042;2024-02-21T11:25:21;101436.98;;;9.96;100.00
48404;BME280;34202;52.536;6.042;2024-02-21T11:30:27;101422.22;;;9.97;100.00
48404;BME280;34202;52.536;6.042;2024-02-21T11:35:30;101399.23;;;9.96;100.00
48404;BME280;34202;52.536;6.042;2024-02-21T11:40:31;101382.71;;;9.96;100.00
48404;BME280;34202;52.536;6.042;2024-02-21T11:45:31;101361.86;;;9.96;100.00
48404;BME280;34202;52.536;6.042;2024-02-21T11:50:34;101339.63;;;9.97;100.00
48404;BME280;34202;52.536;6.042;2024-02-21T11:55:35;101300.69;;;9.99;100.00
48404;BME280;34202;52.536;6.042;2024-02-21T12:00:35;101330.46;;;10.01;100.00
48404;BME280;34202;52.536;6.042;2024-02-21T12:05:36;101359.34;;;10.01;100.00
48404;BME280;34202;52.536;6.042;2024-02-21T12:10:36;101346.29;;;10.01;100.00
48404;BME280;34202;52.536;6.042;2024-02-21T12:15:40;101319.33;;;10.01;100.00
48404;BME280;34202;52.536;6.042;2024-02-21T12:20:41;101300.39;;;10.01;100.00
48404;BME280;34202;52.536;6.042;2024-02-21T12:25:43;101312.70;;;10.00;100.00
48404;BME280;34202;52.536;6.042;2024-02-21T12:30:44;101304.86;;;9.98;100.00
48404;BME280;34202;52.536;6.042;2024-02-21T12:35:44;101288.98;;;9.95;100.00
48404;BME280;34202;52.536;6.042;2024-02-21T12:40:45;101265.63;;;9.91;100.00
48404;BME280;34202;52.536;6.042;2024-02-21T12:45:45;101250.11;;;9.88;100.00
48404;BME280;34202;52.536;6.042;2024-02-21T12:50:49;101219.15;;;9.87;100.00
48404;BME280;34202;52.536;6.042;2024-02-21T12:55:51;101167.70;;;9.89;100.00
48404;BME280;34202;52.536;6.042;2024-02-21T13:00:52;101163.98;;;9.95;100.00
48404;BME280;34202;52.536;6.042;2024-02-21T13:05:53;101166.14;;;10.00;100.00
48404;BME280;34202;52.536;6.042;2024-02-21T13:10:53;101146.73;;;10.05;100.00
48404;BME280;34202;52.536;6.042;2024-02-21T13:15:54;101114.82;;;10.11;100.00
48404;BME280;34202;52.536;6.042;2024-02-21T13:20:54;101098.69;;;10.16;100.00
48404;BME280;34202;52.536;6.042;2024-02-21T13:25:55;101090.77;;;10.21;100.00
48404;BME280;34202;52.536;6.042;2024-02-21T13:30:55;101081.42;;;10.24;100.00
48404;BME280;34202;52.536;6.042;2024-02-21T13:35:56;101059.34;;;10.28;100.00
48404;BME280;34202;52.536;6.042;2024-02-21T13:40:56;101054.86;;;10.30;100.00
48404;BME280;34202;52.536;6.042;2024-02-21T13:45:58;101041.15;;;10.31;100.00
48404;BME280;34202;52.536;6.042;2024-02-21T13:50:59;101017.13;;;10.31;100.00
48404;BME280;34202;52.536;6.042;2024-02-21T13:55:59;100998.01;;;10.31;100.00
48404;BME280;34202;52.536;6.042;2024-02-21T14:01:00;100994.37;;;10.31;100.00
48404;BME280;34202;52.536;6.042;2024-02-21T14:06:01;100984.10;;;10.32;100.00
48404;BME280;34202;52.536;6.042;2024-02-21T14:11:01;100971.24;;;10.33;100.00
48404;BME280;34202;52.536;6.042;2024-02-21T14:16:02;100953.16;;;10.33;100.00
48404;BME280;34202;52.536;6.042;2024-02-21T14:21:03;100938.88;;;10.31;100.00
48404;BME280;34202;52.536;6.042;2024-02-21T14:26:04;100925.63;;;10.30;100.00
48404;BME280;34202;52.536;6.042;2024-02-21T14:31:05;100906.97;;;10.27;100.00
48404;BME280;34202;52.536;6.042;2024-02-21T14:36:09;100882.27;;;10.26;100.00
48404;BME280;34202;52.536;6.042;2024-02-21T14:41:10;100864.86;;;10.25;100.00
48404;BME280;34202;52.536;6.042;2024-02-21T14:46:12;100861.53;;;10.23;100.00
48404;BME280;34202;52.536;6.042;2024-02-21T14:51:13;100852.48;;;10.22;100.00
48404;BME280;34202;52.536;6.042;2024-02-21T14:56:14;100837.69;;;10.20;100.00
48404;BME280;34202;52.536;6.042;2024-02-21T15:01:15;100828.98;;;10.20;100.00
48404;BME280;34202;52.536;6.042;2024-02-21T15:06:16;100819.06;;;10.19;100.00
48404;BME280;34202;52.536;6.042;2024-02-21T15:11:16;100812.62;;;10.18;100.00
48404;BME280;34202;52.536;6.042;2024-02-21T15:16:18;100808.95;;;10.16;100.00
48404;BME280;34202;52.536;6.042;2024-02-21T15:21:18;100768.24;;;10.14;100.00
48404;BME280;34202;52.536;6.042;2024-02-21T15:26:19;100756.08;;;10.13;100.00
48404;BME280;34202;52.536;6.042;2024-02-21T15:31:24;100746.49;;;10.12;100.00
48404;BME280;34202;52.536;6.042;2024-02-21T15:36:24;100727.68;;;10.09;100.00
48404;BME280;34202;52.536;6.042;2024-02-21T15:41:25;100707.34;;;10.07;100.00
48404;BME280;34202;52.536;6.042;2024-02-21T15:46:26;100696.35;;;10.03;100.00
48404;BME280;34202;52.536;6.042;2024-02-21T15:51:26;100673.20;;;9.97;100.00
48404;BME280;34202;52.536;6.042;2024-02-21T15:56:26;100663.08;;;9.92;100.00
48404;BME280;34202;52.536;6.042;2024-02-21T16:01:27;100651.04;;;9.86;100.00
48404;BME280;34202;52.536;6.042;2024-02-21T16:06:28;100644.58;;;9.81;100.00
48404;BME280;34202;52.536;6.042;2024-02-21T16:11:28;100630.11;;;9.74;100.00
48404;BME280;34202;52.536;6.042;2024-02-21T16:16:29;100607.83;;;9.68;100.00
48404;BME280;34202;52.536;6.042;2024-02-21T16:21:30;100589.19;;;9.62;100.00
48404;BME280;34202;52.536;6.042;2024-02-21T16:26:34;100578.71;;;9.56;100.00
48404;BME280;34202;52.536;6.042;2024-02-21T16:31:35;100554.02;;;9.49;100.00
48404;BME280;34202;52.536;6.042;2024-02-21T16:36:38;100540.58;;;9.42;100.00
48404;BME280;34202;52.536;6.042;2024-02-21T16:41:39;100536.55;;;9.36;100.00
48404;BME280;34202;52.536;6.042;2024-02-21T16:46:39;100520.88;;;9.29;100.00
48404;BME280;34202;52.536;6.042;2024-02-21T16:51:39;100522.21;;;9.21;100.00
48404;BME280;34202;52.536;6.042;2024-02-21T16:56:40;100510.54;;;9.16;100.00
48404;BME280;34202;52.536;6.042;2024-02-21T17:01:40;100512.40;;;9.09;100.00
48404;BME280;34202;52.536;6.042;2024-02-21T17:06:41;100512.71;;;9.04;100.00
48404;BME280;34202;52.536;6.042;2024-02-21T17:11:42;100505.55;;;8.98;100.00
48404;BME280;34202;52.536;6.042;2024-02-21T17:16:43;100491.09;;;8.92;100.00
48404;BME280;34202;52.536;6.042;2024-02-21T17:21:43;100485.15;;;8.87;100.00
48404;BME280;34202;52.536;6.042;2024-02-21T17:26:43;100472.45;;;8.83;100.00
48404;BME280;34202;52.536;6.042;2024-02-21T17:31:44;100462.34;;;8.77;100.00
48404;BME280;34202;52.536;6.042;2024-02-21T17:36:44;100459.71;;;8.73;100.00
48404;BME280;34202;52.536;6.042;2024-02-21T17:41:46;100456.89;;;8.70;100.00
48404;BME280;34202;52.536;6.042;2024-02-21T17:46:46;100446.45;;;8.66;100.00
48404;BME280;34202;52.536;6.042;2024-02-21T17:51:47;100433.94;;;8.63;100.00
48404;BME280;34202;52.536;6.042;2024-02-21T17:56:47;100428.20;;;8.60;100.00
48404;BME280;34202;52.536;6.042;2024-02-21T18:01:48;100416.73;;;8.58;100.00
48404;BME280;34202;52.536;6.042;2024-02-21T18:06:48;100408.23;;;8.56;100.00
48404;BME280;34202;52.536;6.042;2024-02-21T18:11:49;100387.56;;;8.54;100.00
48404;BME280;34202;52.536;6.042;2024-02-21T18:16:50;100380.61;;;8.52;100.00
48404;BME280;34202;52.536;6.042;2024-02-21T18:21:50;100370.36;;;8.50;100.00
48404;BME280;34202;52.536;6.042;2024-02-21T18:26:51;100364.11;;;8.49;100.00
48404;BME280;34202;52.536;6.042;2024-02-21T18:31:51;100358.20;;;8.47;100.00
48404;BME280;34202;52.536;6.042;2024-02-21T18:36:52;100341.20;;;8.46;100.00
48404;BME280;34202;52.536;6.042;2024-02-21T18:41:52;100330.42;;;8.43;100.00
48404;BME280;34202;52.536;6.042;2024-02-21T18:46:53;100317.05;;;8.44;100.00
48404;BME280;34202;52.536;6.042;2024-02-21T18:51:53;100307.19;;;8.42;100.00
48404;BME280;34202;52.536;6.042;2024-02-21T18:56:54;100298.14;;;8.41;100.00
48404;BME280;34202;52.536;6.042;2024-02-21T19:01:54;100289.45;;;8.40;100.00
48404;BME280;34202;52.536;6.042;2024-02-21T19:06:55;100269.86;;;8.40;100.00
48404;BME280;34202;52.536;6.042;2024-02-21T19:11:56;100254.06;;;8.39;100.00
48404;BME280;34202;52.536;6.042;2024-02-21T19:16:56;100244.36;;;8.39;100.00
48404;BME280;34202;52.536;6.042;2024-02-21T19:21:57;100238.45;;;8.38;100.00
48404;BME280;34202;52.536;6.042;2024-02-21T19:26:57;100234.98;;;8.38;100.00
48404;BME280;34202;52.536;6.042;2024-02-21T19:31:58;100220.25;;;8.38;100.00
48404;BME280;34202;52.536;6.042;2024-02-21T19:36:58;100212.79;;;8.38;100.00
48404;BME280;34202;52.536;6.042;2024-02-21T19:41:58;100200.30;;;8.37;100.00
48404;BME280;34202;52.536;6.042;2024-02-21T19:46:59;100190.06;;;8.38;100.00
48404;BME280;34202;52.536;6.042;2024-02-21T19:51:59;100178.63;;;8.38;100.00
48404;BME280;34202;52.536;6.042;2024-02-21T19:57:00;100171.69;;;8.38;100.00
48404;BME280;34202;52.536;6.042;2024-02-21T20:02:00;100165.45;;;8.37;100.00
48404;BME280;34202;52.536;6.042;2024-02-21T20:07:01;100156.08;;;8.38;100.00
48404;BME280;34202;52.536;6.042;2024-02-21T20:12:02;100142.23;;;8.39;100.00
48404;BME280;34202;52.536;6.042;2024-02-21T20:17:04;100132.67;;;8.39;100.00
48404;BME280;34202;52.536;6.042;2024-02-21T20:22:04;100125.92;;;8.39;100.00
48404;BME280;34202;52.536;6.042;2024-02-21T20:27:05;100114.66;;;8.40;100.00
48404;BME280;34202;52.536;6.042;2024-02-21T20:32:06;100100.80;;;8.40;100.00
48404;BME280;34202;52.536;6.042;2024-02-21T20:37:06;100093.86;;;8.41;100.00
48404;BME280;34202;52.536;6.042;2024-02-21T20:42:11;100088.70;;;8.42;100.00
48404;BME280;34202;52.536;6.042;2024-02-21T20:47:11;100078.81;;;8.43;100.00
48404;BME280;34202;52.536;6.042;2024-02-21T20:52:12;100072.39;;;8.43;100.00
48404;BME280;34202;52.536;6.042;2024-02-21T20:57:13;100060.77;;;8.44;100.00
48404;BME280;34202;52.536;6.042;2024-02-21T21:02:13;100060.27;;;8.46;100.00
48404;BME280;34202;52.536;6.042;2024-02-21T21:07:14;100053.51;;;8.45;100.00
48404;BME280;34202;52.536;6.042;2024-02-21T21:12:15;100050.90;;;8.47;100.00
48404;BME280;34202;52.536;6.042;2024-02-21T21:17:15;100042.77;;;8.48;100.00
48404;BME280;34202;52.536;6.042;2024-02-21T21:22:16;100031.66;;;8.49;100.00
48404;BME280;34202;52.536;6.042;2024-02-21T21:27:17;100022.99;;;8.49;100.00
48404;BME280;34202;52.536;6.042;2024-02-21T21:32:17;100020.04;;;8.51;100.00
48404;BME280;34202;52.536;6.042;2024-02-21T21:37:18;100012.77;;;8.52;100.00
48404;BME280;34202;52.536;6.042;2024-02-21T21:42:18;100011.90;;;8.52;100.00
48404;BME280;34202;52.536;6.042;2024-02-21T21:47:19;100012.06;;;8.52;100.00
48404;BME280;34202;52.536;6.042;2024-02-21T21:52:19;100004.26;;;8.53;100.00
48404;BME280;34202;52.536;6.042;2024-02-21T21:57:19;99999.41;;;8.54;100.00
48404;BME280;34202;52.536;6.042;2024-02-21T22:02:20;99984.67;;;8.55;100.00
48404;BME280;34202;52.536;6.042;2024-02-21T22:07:25;99976.69;;;8.56;100.00
48404;BME280;34202;52.536;6.042;2024-02-21T22:12:25;99964.38;;;8.57;100.00
48404;BME280;34202;52.536;6.042;2024-02-21T22:17:26;99956.75;;;8.58;100.00
48404;BME280;34202;52.536;6.042;2024-02-21T22:22:26;99947.56;;;8.58;100.00
48404;BME280;34202;52.536;6.042;2024-02-21T22:27:27;99940.62;;;8.59;100.00
48404;BME280;34202;52.536;6.042;2024-02-21T22:32:28;99935.42;;;8.60;100.00
48404;BME280;34202;52.536;6.042;2024-02-21T22:37:29;99927.27;;;8.61;100.00
48404;BME280;34202;52.536;6.042;2024-02-21T22:42:29;99919.81;;;8.63;100.00
48404;BME280;34202;52.536;6.042;2024-02-21T22:47:29;99913.39;;;8.63;100.00
48404;BME280;34202;52.536;6.042;2024-02-21T22:52:30;99900.04;;;8.65;100.00
48404;BME280;34202;52.536;6.042;2024-02-21T22:57:30;99897.42;;;8.66;100.00
48404;BME280;34202;52.536;6.042;2024-02-21T23:02:31;99889.98;;;8.67;100.00
48404;BME280;34202;52.536;6.042;2024-02-21T23:07:31;99887.71;;;8.69;100.00
48404;BME280;34202;52.536;6.042;2024-02-21T23:12:32;99894.64;;;8.69;100.00
48404;BME280;34202;52.536;6.042;2024-02-21T23:17:34;99891.36;;;8.71;100.00
48404;BME280;34202;52.536;6.042;2024-02-21T23:22:35;99889.10;;;8.72;100.00
48404;BME280;34202;52.536;6.042;2024-02-21T23:27:35;99886.86;;;8.74;100.00
48404;BME280;34202;52.536;6.042;2024-02-21T23:32:36;99878.53;;;8.76;100.00
48404;BME280;34202;52.536;6.042;2024-02-21T23:37:36;99870.19;;;8.77;100.00
48404;BME280;34202;52.536;6.042;2024-02-21T23:42:41;99874.18;;;8.79;100.00
48404;BME280;34202;52.536;6.042;2024-02-21T23:47:42;99872.10;;;8.80;100.00
48404;BME280;34202;52.536;6.042;2024-02-21T23:52:44;99866.71;;;8.81;100.00
48404;BME280;34202;52.536;6.042;2024-02-21T23:57:45;99862.55;;;8.83;100.00
